sensor_id;sensor_type;location;lat;lon;timestamp;P1;durP1;ratioP1;P2;durP2;ratioP2
62951;SDS011;52163;52.212;-1.002;2022-11-20T00:00:28;17.10;;;7.80;;
62951;SDS011;52163;52.212;-1.002;2022-11-20T00:02:53;13.30;;;7.20;;
62951;SDS011;52163;52.212;-1.002;2022-11-20T00:05:18;12.50;;;7.70;;
62951;SDS011;52163;52.212;-1.002;2022-11-20T00:07:44;18.50;;;7.90;;
62951;SDS011;52163;52.212;-1.002;2022-11-20T00:10:10;17.40;;;7.90;;
62951;SDS011;52163;52.212;-1.002;2022-11-20T00:12:35;18.20;;;7.40;;
62951;SDS011;52163;52.212;-1.002;2022-11-20T00:15:00;18.40;;;8.60;;
62951;SDS011;52163;52.212;-1.002;2022-11-20T00:17:26;14.10;;;8.20;;
62951;SDS011;52163;52.212;-1.002;2022-11-20T00:19:51;15.90;;;7.10;;
62951;SDS011;52163;52.212;-1.002;2022-11-20T00:22:17;12.10;;;6.30;;
62951;SDS011;52163;52.212;-1.002;2022-11-20T00:24:42;15.00;;;6.60;;
62951;SDS011;52163;52.212;-1.002;2022-11-20T00:27:07;14.60;;;7.10;;
62951;SDS011;52163;52.212;-1.002;2022-11-20T00:29:33;11.90;;;6.40;;
62951;SDS011;52163;52.212;-1.002;2022-11-20T00:31:58;11.00;;;7.00;;
62951;SDS011;52163;52.212;-1.002;2022-11-20T00:34:23;11.50;;;6.90;;
62951;SDS011;52163;52.212;-1.002;2022-11-20T00:36:49;22.00;;;7.90;;
62951;SDS011;52163;52.212;-1.002;2022-11-20T00:39:14;14.00;;;7.70;;
62951;SDS011;52163;52.212;-1.002;2022-11-20T00:41:39;15.90;;;7.80;;
62951;SDS011;52163;52.212;-1.002;2022-11-20T00:44:05;15.90;;;6.80;;
62951;SDS011;52163;52.212;-1.002;2022-11-20T00:46:30;12.20;;;7.00;;
62951;SDS011;52163;52.212;-1.002;2022-11-20T00:48:55;15.70;;;7.30;;
62951;SDS011;52163;52.212;-1.002;2022-11-20T00:51:22;17.00;;;8.50;;
62951;SDS011;52163;52.212;-1.002;2022-11-20T00:53:49;18.70;;;8.20;;
62951;SDS011;52163;52.212;-1.002;2022-11-20T00:56:16;16.00;;;7.90;;
62951;SDS011;52163;52.212;-1.002;2022-11-20T00:58:44;15.90;;;8.20;;
62951;SDS011;52163;52.212;-1.002;2022-11-20T01:03:38;16.70;;;7.20;;
62951;SDS011;52163;52.212;-1.002;2022-11-20T01:06:12;13.30;;;6.80;;
62951;SDS011;52163;52.212;-1.002;2022-11-20T01:08:39;15.40;;;7.60;;
62951;SDS011;52163;52.212;-1.002;2022-11-20T01:11:06;18.20;;;7.70;;
62951;SDS011;52163;52.212;-1.002;2022-11-20T01:13:34;19.20;;;7.80;;
62951;SDS011;52163;52.212;-1.002;2022-11-20T01:16:06;14.90;;;7.80;;
62951;SDS011;52163;52.212;-1.002;2022-11-20T01:18:44;14.00;;;7.00;;
62951;SDS011;52163;52.212;-1.002;2022-11-20T01:21:15;12.50;;;6.30;;
62951;SDS011;52163;52.212;-1.002;2022-11-20T01:23:44;12.00;;;6.50;;
62951;SDS011;52163;52.212;-1.002;2022-11-20T01:26:12;14.00;;;5.90;;
62951;SDS011;52163;52.212;-1.002;2022-11-20T01:28:39;12.90;;;6.20;;
62951;SDS011;52163;52.212;-1.002;2022-11-20T01:33:38;18.40;;;6.10;;
62951;SDS011;52163;52.212;-1.002;2022-11-20T01:36:04;13.40;;;6.50;;
62951;SDS011;52163;52.212;-1.002;2022-11-20T01:38:31;15.10;;;5.80;;
62951;SDS011;52163;52.212;-1.002;2022-11-20T01:40:56;12.10;;;5.70;;
62951;SDS011;52163;52.212;-1.002;2022-11-20T01:43:22;10.00;;;5.30;;
62951;SDS011;52163;52.212;-1.002;2022-11-20T01:48:19;10.70;;;5.20;;
62951;SDS011;52163;52.212;-1.002;2022-11-20T01:50:47;10.80;;;5.20;;
62951;SDS011;52163;52.212;-1.002;2022-11-20T01:53:14;13.90;;;5.50;;
62951;SDS011;52163;52.212;-1.002;2022-11-20T01:55:45;10.50;;;5.40;;
62951;SDS011;52163;52.212;-1.002;2022-11-20T01:58:14;10.70;;;5.30;;
62951;SDS011;52163;52.212;-1.002;2022-11-20T02:00:41;9.30;;;5.10;;
62951;SDS011;52163;52.212;-1.002;2022-11-20T02:03:08;12.10;;;5.60;;
62951;SDS011;52163;52.212;-1.002;2022-11-20T02:05:38;9.00;;;4.50;;
62951;SDS011;52163;52.212;-1.002;2022-11-20T02:08:08;11.90;;;5.10;;
62951;SDS011;52163;52.212;-1.002;2022-11-20T02:10:34;10.80;;;5.60;;
62951;SDS011;52163;52.212;-1.002;2022-11-20T02:12:59;13.60;;;5.60;;
62951;SDS011;52163;52.212;-1.002;2022-11-20T02:15:43;11.50;;;5.10;;
62951;SDS011;52163;52.212;-1.002;2022-11-20T02:18:10;11.00;;;5.40;;
62951;SDS011;52163;52.212;-1.002;2022-11-20T02:20:38;10.80;;;5.20;;
62951;SDS011;52163;52.212;-1.002;2022-11-20T02:23:16;12.20;;;5.60;;
62951;SDS011;52163;52.212;-1.002;2022-11-20T02:25:46;8.40;;;4.80;;
62951;SDS011;52163;52.212;-1.002;2022-11-20T02:28:13;9.50;;;5.20;;
62951;SDS011;52163;52.212;-1.002;2022-11-20T02:30:38;10.40;;;4.60;;
62951;SDS011;52163;52.212;-1.002;2022-11-20T02:33:04;16.80;;;4.70;;
62951;SDS011;52163;52.212;-1.002;2022-11-20T02:37:55;12.90;;;4.00;;
62951;SDS011;52163;52.212;-1.002;2022-11-20T02:40:22;11.00;;;4.90;;
62951;SDS011;52163;52.212;-1.002;2022-11-20T02:42:48;11.80;;;4.00;;
62951;SDS011;52163;52.212;-1.002;2022-11-20T02:45:17;8.50;;;4.10;;
62951;SDS011;52163;52.212;-1.002;2022-11-20T02:47:42;10.20;;;4.70;;
62951;SDS011;52163;52.212;-1.002;2022-11-20T02:50:08;7.30;;;3.50;;
62951;SDS011;52163;52.212;-1.002;2022-11-20T02:52:33;12.20;;;4.10;;
62951;SDS011;52163;52.212;-1.002;2022-11-20T02:54:59;7.20;;;3.50;;
62951;SDS011;52163;52.212;-1.002;2022-11-20T02:57:24;10.70;;;3.30;;
62951;SDS011;52163;52.212;-1.002;2022-11-20T02:59:49;8.50;;;3.70;;
62951;SDS011;52163;52.212;-1.002;2022-11-20T03:02:15;8.10;;;4.00;;
62951;SDS011;52163;52.212;-1.002;2022-11-20T03:04:40;13.60;;;4.10;;
62951;SDS011;52163;52.212;-1.002;2022-11-20T03:07:07;11.80;;;4.20;;
62951;SDS011;52163;52.212;-1.002;2022-11-20T03:09:33;9.10;;;3.60;;
62951;SDS011;52163;52.212;-1.002;2022-11-20T03:11:58;13.20;;;4.20;;
62951;SDS011;52163;52.212;-1.002;2022-11-20T03:14:23;8.30;;;3.60;;
62951;SDS011;52163;52.212;-1.002;2022-11-20T03:16:49;8.80;;;3.70;;
62951;SDS011;52163;52.212;-1.002;2022-11-20T03:19:14;6.50;;;3.50;;
62951;SDS011;52163;52.212;-1.002;2022-11-20T03:21:40;9.20;;;3.50;;
62951;SDS011;52163;52.212;-1.002;2022-11-20T03:24:05;7.90;;;3.50;;
62951;SDS011;52163;52.212;-1.002;2022-11-20T03:26:31;9.70;;;3.80;;
62951;SDS011;52163;52.212;-1.002;2022-11-20T03:29:00;7.20;;;3.30;;
62951;SDS011;52163;52.212;-1.002;2022-11-20T03:31:32;6.40;;;3.30;;
62951;SDS011;52163;52.212;-1.002;2022-11-20T03:34:00;7.50;;;3.10;;
62951;SDS011;52163;52.212;-1.002;2022-11-20T03:36:26;8.00;;;3.80;;
62951;SDS011;52163;52.212;-1.002;2022-11-20T03:38:53;9.80;;;4.20;;
62951;SDS011;52163;52.212;-1.002;2022-11-20T03:41:21;10.20;;;4.40;;
62951;SDS011;52163;52.212;-1.002;2022-11-20T03:43:55;13.80;;;4.80;;
62951;SDS011;52163;52.212;-1.002;2022-11-20T03:46:22;9.40;;;4.40;;
62951;SDS011;52163;52.212;-1.002;2022-11-20T03:48:48;10.70;;;4.00;;
62951;SDS011;52163;52.212;-1.002;2022-11-20T03:51:15;10.90;;;4.20;;
62951;SDS011;52163;52.212;-1.002;2022-11-20T03:53:49;8.50;;;3.90;;
62951;SDS011;52163;52.212;-1.002;2022-11-20T03:56:16;9.40;;;4.50;;
62951;SDS011;52163;52.212;-1.002;2022-11-20T03:58:43;7.80;;;4.90;;
62951;SDS011;52163;52.212;-1.002;2022-11-20T04:01:10;11.30;;;4.90;;
62951;SDS011;52163;52.212;-1.002;2022-11-20T04:03:38;11.10;;;4.30;;
62951;SDS011;52163;52.212;-1.002;2022-11-20T04:06:05;11.10;;;4.50;;
62951;SDS011;52163;52.212;-1.002;2022-11-20T04:08:33;14.60;;;4.90;;
62951;SDS011;52163;52.212;-1.002;2022-11-20T04:13:55;8.00;;;4.10;;
62951;SDS011;52163;52.212;-1.002;2022-11-20T04:16:23;10.70;;;4.60;;
62951;SDS011;52163;52.212;-1.002;2022-11-20T04:18:56;9.60;;;4.60;;
62951;SDS011;52163;52.212;-1.002;2022-11-20T04:21:23;8.80;;;5.20;;
62951;SDS011;52163;52.212;-1.002;2022-11-20T04:23:50;8.80;;;4.60;;
62951;SDS011;52163;52.212;-1.002;2022-11-20T04:26:16;6.90;;;4.00;;
62951;SDS011;52163;52.212;-1.002;2022-11-20T04:28:42;8.20;;;4.60;;
62951;SDS011;52163;52.212;-1.002;2022-11-20T04:31:08;9.30;;;4.30;;
62951;SDS011;52163;52.212;-1.002;2022-11-20T04:33:36;8.90;;;5.80;;
62951;SDS011;52163;52.212;-1.002;2022-11-20T04:36:04;8.60;;;5.50;;
62951;SDS011;52163;52.212;-1.002;2022-11-20T04:38:37;10.40;;;4.30;;
62951;SDS011;52163;52.212;-1.002;2022-11-20T04:41:03;8.90;;;4.40;;
62951;SDS011;52163;52.212;-1.002;2022-11-20T04:43:31;8.60;;;5.00;;
62951;SDS011;52163;52.212;-1.002;2022-11-20T04:45:57;9.20;;;4.20;;
62951;SDS011;52163;52.212;-1.002;2022-11-20T04:48:24;10.20;;;4.70;;
62951;SDS011;52163;52.212;-1.002;2022-11-20T04:50:51;11.20;;;5.30;;
62951;SDS011;52163;52.212;-1.002;2022-11-20T04:53:17;11.90;;;5.70;;
62951;SDS011;52163;52.212;-1.002;2022-11-20T04:55:44;10.90;;;5.10;;
62951;SDS011;52163;52.212;-1.002;2022-11-20T04:58:10;8.50;;;5.00;;
62951;SDS011;52163;52.212;-1.002;2022-11-20T05:00:36;6.90;;;4.70;;
62951;SDS011;52163;52.212;-1.002;2022-11-20T05:03:02;9.10;;;5.00;;
62951;SDS011;52163;52.212;-1.002;2022-11-20T05:05:27;8.20;;;4.90;;
62951;SDS011;52163;52.212;-1.002;2022-11-20T05:07:53;9.50;;;5.40;;
62951;SDS011;52163;52.212;-1.002;2022-11-20T05:10:21;11.10;;;5.80;;
62951;SDS011;52163;52.212;-1.002;2022-11-20T05:12:46;9.10;;;5.50;;
62951;SDS011;52163;52.212;-1.002;2022-11-20T05:15:11;10.80;;;6.20;;
62951;SDS011;52163;52.212;-1.002;2022-11-20T05:17:37;9.30;;;5.70;;
62951;SDS011;52163;52.212;-1.002;2022-11-20T05:20:02;8.70;;;5.20;;
62951;SDS011;52163;52.212;-1.002;2022-11-20T05:22:28;8.70;;;5.10;;
62951;SDS011;52163;52.212;-1.002;2022-11-20T05:24:53;8.80;;;5.60;;
62951;SDS011;52163;52.212;-1.002;2022-11-20T05:27:18;8.80;;;5.50;;
62951;SDS011;52163;52.212;-1.002;2022-11-20T05:29:44;9.30;;;5.50;;
62951;SDS011;52163;52.212;-1.002;2022-11-20T05:32:09;11.30;;;5.60;;
62951;SDS011;52163;52.212;-1.002;2022-11-20T05:34:35;8.60;;;5.20;;
62951;SDS011;52163;52.212;-1.002;2022-11-20T05:37:00;7.20;;;4.40;;
62951;SDS011;52163;52.212;-1.002;2022-11-20T05:39:27;5.90;;;3.90;;
62951;SDS011;52163;52.212;-1.002;2022-11-20T05:41:52;7.30;;;4.00;;
62951;SDS011;52163;52.212;-1.002;2022-11-20T05:44:37;5.70;;;4.50;;
62951;SDS011;52163;52.212;-1.002;2022-11-20T05:47:03;6.80;;;4.50;;
62951;SDS011;52163;52.212;-1.002;2022-11-20T05:49:29;9.30;;;4.50;;
62951;SDS011;52163;52.212;-1.002;2022-11-20T05:51:54;6.70;;;4.10;;
62951;SDS011;52163;52.212;-1.002;2022-11-20T05:54:19;8.20;;;3.90;;
62951;SDS011;52163;52.212;-1.002;2022-11-20T05:56:45;6.10;;;3.80;;
62951;SDS011;52163;52.212;-1.002;2022-11-20T05:59:10;9.30;;;3.90;;
62951;SDS011;52163;52.212;-1.002;2022-11-20T06:01:35;6.10;;;3.90;;
62951;SDS011;52163;52.212;-1.002;2022-11-20T06:04:01;9.80;;;4.90;;
62951;SDS011;52163;52.212;-1.002;2022-11-20T06:06:27;9.70;;;5.00;;
62951;SDS011;52163;52.212;-1.002;2022-11-20T06:08:52;9.40;;;5.10;;
62951;SDS011;52163;52.212;-1.002;2022-11-20T06:11:19;6.60;;;4.80;;
62951;SDS011;52163;52.212;-1.002;2022-11-20T06:13:44;7.40;;;5.20;;
62951;SDS011;52163;52.212;-1.002;2022-11-20T06:16:11;7.80;;;4.60;;
62951;SDS011;52163;52.212;-1.002;2022-11-20T06:18:37;7.20;;;4.70;;
62951;SDS011;52163;52.212;-1.002;2022-11-20T06:21:07;8.10;;;4.70;;
62951;SDS011;52163;52.212;-1.002;2022-11-20T06:23:38;9.60;;;5.70;;
62951;SDS011;52163;52.212;-1.002;2022-11-20T06:26:04;9.80;;;5.90;;
62951;SDS011;52163;52.212;-1.002;2022-11-20T06:28:38;8.40;;;5.30;;
62951;SDS011;52163;52.212;-1.002;2022-11-20T06:31:04;9.80;;;6.10;;
62951;SDS011;52163;52.212;-1.002;2022-11-20T06:33:30;9.10;;;5.60;;
62951;SDS011;52163;52.212;-1.002;2022-11-20T06:35:59;9.00;;;5.10;;
62951;SDS011;52163;52.212;-1.002;2022-11-20T06:38:26;7.30;;;4.70;;
62951;SDS011;52163;52.212;-1.002;2022-11-20T06:40:52;9.90;;;6.00;;
62951;SDS011;52163;52.212;-1.002;2022-11-20T06:43:17;9.20;;;5.30;;
62951;SDS011;52163;52.212;-1.002;2022-11-20T06:45:43;9.90;;;6.40;;
62951;SDS011;52163;52.212;-1.002;2022-11-20T06:48:08;10.00;;;5.60;;
62951;SDS011;52163;52.212;-1.002;2022-11-20T06:50:35;7.40;;;4.70;;
62951;SDS011;52163;52.212;-1.002;2022-11-20T06:53:02;7.10;;;4.60;;
62951;SDS011;52163;52.212;-1.002;2022-11-20T06:55:28;8.30;;;4.80;;
62951;SDS011;52163;52.212;-1.002;2022-11-20T06:57:54;8.10;;;4.80;;
62951;SDS011;52163;52.212;-1.002;2022-11-20T07:00:19;9.00;;;5.10;;
62951;SDS011;52163;52.212;-1.002;2022-11-20T07:02:45;11.70;;;4.90;;
62951;SDS011;52163;52.212;-1.002;2022-11-20T07:05:10;9.10;;;5.00;;
62951;SDS011;52163;52.212;-1.002;2022-11-20T07:07:35;6.30;;;4.20;;
62951;SDS011;52163;52.212;-1.002;2022-11-20T07:10:01;7.80;;;4.10;;
62951;SDS011;52163;52.212;-1.002;2022-11-20T07:12:26;6.80;;;4.60;;
62951;SDS011;52163;52.212;-1.002;2022-11-20T07:14:52;10.10;;;4.80;;
62951;SDS011;52163;52.212;-1.002;2022-11-20T07:17:17;11.60;;;4.70;;
62951;SDS011;52163;52.212;-1.002;2022-11-20T07:19:43;10.60;;;5.40;;
62951;SDS011;52163;52.212;-1.002;2022-11-20T07:22:08;7.50;;;4.80;;
62951;SDS011;52163;52.212;-1.002;2022-11-20T07:24:33;9.40;;;5.20;;
62951;SDS011;52163;52.212;-1.002;2022-11-20T07:26:59;8.20;;;4.00;;
62951;SDS011;52163;52.212;-1.002;2022-11-20T07:29:25;7.10;;;4.20;;
62951;SDS011;52163;52.212;-1.002;2022-11-20T07:31:51;6.40;;;3.80;;
62951;SDS011;52163;52.212;-1.002;2022-11-20T07:34:16;6.70;;;3.10;;
62951;SDS011;52163;52.212;-1.002;2022-11-20T07:36:41;10.90;;;5.20;;
62951;SDS011;52163;52.212;-1.002;2022-11-20T07:39:07;11.10;;;5.00;;
62951;SDS011;52163;52.212;-1.002;2022-11-20T07:41:32;8.50;;;4.10;;
62951;SDS011;52163;52.212;-1.002;2022-11-20T07:43:58;7.70;;;3.70;;
62951;SDS011;52163;52.212;-1.002;2022-11-20T07:46:23;6.90;;;4.00;;
62951;SDS011;52163;52.212;-1.002;2022-11-20T07:48:48;8.70;;;3.30;;
62951;SDS011;52163;52.212;-1.002;2022-11-20T07:51:14;7.10;;;3.10;;
62951;SDS011;52163;52.212;-1.002;2022-11-20T07:53:39;8.10;;;2.10;;
62951;SDS011;52163;52.212;-1.002;2022-11-20T07:56:05;7.70;;;3.00;;
62951;SDS011;52163;52.212;-1.002;2022-11-20T07:58:31;5.10;;;2.30;;
62951;SDS011;52163;52.212;-1.002;2022-11-20T08:01:01;7.70;;;3.10;;
62951;SDS011;52163;52.212;-1.002;2022-11-20T08:03:28;7.50;;;2.80;;
62951;SDS011;52163;52.212;-1.002;2022-11-20T08:05:54;7.10;;;1.90;;
62951;SDS011;52163;52.212;-1.002;2022-11-20T08:08:23;5.40;;;2.00;;
62951;SDS011;52163;52.212;-1.002;2022-11-20T08:10:48;5.60;;;2.00;;
62951;SDS011;52163;52.212;-1.002;2022-11-20T08:13:14;5.90;;;1.70;;
62951;SDS011;52163;52.212;-1.002;2022-11-20T08:15:58;9.40;;;2.20;;
62951;SDS011;52163;52.212;-1.002;2022-11-20T08:18:23;7.50;;;2.40;;
62951;SDS011;52163;52.212;-1.002;2022-11-20T08:20:48;4.10;;;2.20;;
62951;SDS011;52163;52.212;-1.002;2022-11-20T08:23:14;14.10;;;2.50;;
62951;SDS011;52163;52.212;-1.002;2022-11-20T08:25:39;7.60;;;2.00;;
62951;SDS011;52163;52.212;-1.002;2022-11-20T08:28:06;9.90;;;2.10;;
62951;SDS011;52163;52.212;-1.002;2022-11-20T08:30:34;9.00;;;2.30;;
62951;SDS011;52163;52.212;-1.002;2022-11-20T08:33:03;10.50;;;2.10;;
62951;SDS011;52163;52.212;-1.002;2022-11-20T08:35:34;8.30;;;1.60;;
62951;SDS011;52163;52.212;-1.002;2022-11-20T08:38:01;13.00;;;2.40;;
62951;SDS011;52163;52.212;-1.002;2022-11-20T08:40:28;6.30;;;2.00;;
62951;SDS011;52163;52.212;-1.002;2022-11-20T08:42:54;12.50;;;2.40;;
62951;SDS011;52163;52.212;-1.002;2022-11-20T08:45:19;9.10;;;2.60;;
62951;SDS011;52163;52.212;-1.002;2022-11-20T08:47:45;8.10;;;1.70;;
62951;SDS011;52163;52.212;-1.002;2022-11-20T08:50:11;8.30;;;2.40;;
62951;SDS011;52163;52.212;-1.002;2022-11-20T08:52:38;9.70;;;1.70;;
62951;SDS011;52163;52.212;-1.002;2022-11-20T08:55:04;8.60;;;1.60;;
62951;SDS011;52163;52.212;-1.002;2022-11-20T08:57:31;6.30;;;1.50;;
62951;SDS011;52163;52.212;-1.002;2022-11-20T08:59:58;9.50;;;2.10;;
62951;SDS011;52163;52.212;-1.002;2022-11-20T09:02:24;8.80;;;2.30;;
62951;SDS011;52163;52.212;-1.002;2022-11-20T09:04:49;10.30;;;2.10;;
62951;SDS011;52163;52.212;-1.002;2022-11-20T09:07:15;11.50;;;2.80;;
62951;SDS011;52163;52.212;-1.002;2022-11-20T09:09:40;8.00;;;2.00;;
62951;SDS011;52163;52.212;-1.002;2022-11-20T09:12:05;7.70;;;1.70;;
62951;SDS011;52163;52.212;-1.002;2022-11-20T09:14:31;9.90;;;2.30;;
62951;SDS011;52163;52.212;-1.002;2022-11-20T09:16:56;11.40;;;1.90;;
62951;SDS011;52163;52.212;-1.002;2022-11-20T09:19:23;9.50;;;1.70;;
62951;SDS011;52163;52.212;-1.002;2022-11-20T09:21:49;9.50;;;1.80;;
62951;SDS011;52163;52.212;-1.002;2022-11-20T09:24:14;9.20;;;1.90;;
62951;SDS011;52163;52.212;-1.002;2022-11-20T09:26:39;12.60;;;2.30;;
62951;SDS011;52163;52.212;-1.002;2022-11-20T09:29:05;5.70;;;1.90;;
62951;SDS011;52163;52.212;-1.002;2022-11-20T09:31:30;10.90;;;1.80;;
62951;SDS011;52163;52.212;-1.002;2022-11-20T09:33:56;7.80;;;1.70;;
62951;SDS011;52163;52.212;-1.002;2022-11-20T09:36:21;8.60;;;2.10;;
62951;SDS011;52163;52.212;-1.002;2022-11-20T09:38:47;10.60;;;2.40;;
62951;SDS011;52163;52.212;-1.002;2022-11-20T09:44:19;8.80;;;2.30;;
62951;SDS011;52163;52.212;-1.002;2022-11-20T09:49:44;16.30;;;2.10;;
62951;SDS011;52163;52.212;-1.002;2022-11-20T09:55:03;13.10;;;2.30;;
62951;SDS011;52163;52.212;-1.002;2022-11-20T09:57:36;10.10;;;2.00;;
62951;SDS011;52163;52.212;-1.002;2022-11-20T10:00:05;9.50;;;2.20;;
62951;SDS011;52163;52.212;-1.002;2022-11-20T10:05:26;15.50;;;3.60;;
62951;SDS011;52163;52.212;-1.002;2022-11-20T10:08:13;13.90;;;3.60;;
62951;SDS011;52163;52.212;-1.002;2022-11-20T10:10:50;14.70;;;3.40;;
62951;SDS011;52163;52.212;-1.002;2022-11-20T10:18:41;12.50;;;2.90;;
62951;SDS011;52163;52.212;-1.002;2022-11-20T10:21:18;14.70;;;3.30;;
62951;SDS011;52163;52.212;-1.002;2022-11-20T10:24:01;17.40;;;3.30;;
62951;SDS011;52163;52.212;-1.002;2022-11-20T10:26:38;15.00;;;2.70;;
62951;SDS011;52163;52.212;-1.002;2022-11-20T10:29:17;14.20;;;2.60;;
62951;SDS011;52163;52.212;-1.002;2022-11-20T10:31:53;9.60;;;2.10;;
62951;SDS011;52163;52.212;-1.002;2022-11-20T10:36:55;10.80;;;2.10;;
62951;SDS011;52163;52.212;-1.002;2022-11-20T10:41:53;12.70;;;3.00;;
62951;SDS011;52163;52.212;-1.002;2022-11-20T10:44:25;8.90;;;1.80;;
62951;SDS011;52163;52.212;-1.002;2022-11-20T10:47:15;12.50;;;2.70;;
62951;SDS011;52163;52.212;-1.002;2022-11-20T10:49:43;12.10;;;2.50;;
62951;SDS011;52163;52.212;-1.002;2022-11-20T11:00:33;8.30;;;2.20;;
62951;SDS011;52163;52.212;-1.002;2022-11-20T11:02:58;9.40;;;1.90;;
62951;SDS011;52163;52.212;-1.002;2022-11-20T11:05:33;9.60;;;2.00;;
62951;SDS011;52163;52.212;-1.002;2022-11-20T11:08:04;15.40;;;2.70;;
62951;SDS011;52163;52.212;-1.002;2022-11-20T11:13:19;14.60;;;2.20;;
62951;SDS011;52163;52.212;-1.002;2022-11-20T11:15:48;11.80;;;2.10;;
62951;SDS011;52163;52.212;-1.002;2022-11-20T11:20:50;12.50;;;2.50;;
62951;SDS011;52163;52.212;-1.002;2022-11-20T11:23:26;10.70;;;3.40;;
62951;SDS011;52163;52.212;-1.002;2022-11-20T11:25:57;13.10;;;2.90;;
62951;SDS011;52163;52.212;-1.002;2022-11-20T11:28:24;9.00;;;2.70;;
62951;SDS011;52163;52.212;-1.002;2022-11-20T11:30:52;19.90;;;2.70;;
62951;SDS011;52163;52.212;-1.002;2022-11-20T11:33:23;16.00;;;2.70;;
62951;SDS011;52163;52.212;-1.002;2022-11-20T11:38:42;10.50;;;2.30;;
62951;SDS011;52163;52.212;-1.002;2022-11-20T11:41:16;9.10;;;2.20;;
62951;SDS011;52163;52.212;-1.002;2022-11-20T11:43:55;14.10;;;2.60;;
62951;SDS011;52163;52.212;-1.002;2022-11-20T11:46:43;15.70;;;2.80;;
62951;SDS011;52163;52.212;-1.002;2022-11-20T11:49:18;14.10;;;2.40;;
62951;SDS011;52163;52.212;-1.002;2022-11-20T11:51:59;15.00;;;2.50;;
62951;SDS011;52163;52.212;-1.002;2022-11-20T11:54:38;11.90;;;1.90;;
62951;SDS011;52163;52.212;-1.002;2022-11-20T11:57:13;13.00;;;1.90;;
62951;SDS011;52163;52.212;-1.002;2022-11-20T11:59:46;8.00;;;2.10;;
62951;SDS011;52163;52.212;-1.002;2022-11-20T12:02:27;13.60;;;2.30;;
62951;SDS011;52163;52.212;-1.002;2022-11-20T12:04:55;11.40;;;2.20;;
62951;SDS011;52163;52.212;-1.002;2022-11-20T12:07:42;12.50;;;2.70;;
62951;SDS011;52163;52.212;-1.002;2022-11-20T12:12:50;10.80;;;1.90;;
62951;SDS011;52163;52.212;-1.002;2022-11-20T12:15:23;13.90;;;2.30;;
62951;SDS011;52163;52.212;-1.002;2022-11-20T12:17:53;11.60;;;2.20;;
62951;SDS011;52163;52.212;-1.002;2022-11-20T12:20:19;8.70;;;2.20;;
62951;SDS011;52163;52.212;-1.002;2022-11-20T12:22:49;14.00;;;2.50;;
62951;SDS011;52163;52.212;-1.002;2022-11-20T12:25:34;10.00;;;2.00;;
62951;SDS011;52163;52.212;-1.002;2022-11-20T12:28:13;7.30;;;2.10;;
62951;SDS011;52163;52.212;-1.002;2022-11-20T12:30:42;11.50;;;2.20;;
62951;SDS011;52163;52.212;-1.002;2022-11-20T12:39:16;7.00;;;2.30;;
62951;SDS011;52163;52.212;-1.002;2022-11-20T12:53:44;12.30;;;2.80;;
62951;SDS011;52163;52.212;-1.002;2022-11-20T13:07:47;10.60;;;2.40;;
62951;SDS011;52163;52.212;-1.002;2022-11-20T13:10:21;6.60;;;1.70;;
62951;SDS011;52163;52.212;-1.002;2022-11-20T13:13:00;10.40;;;2.70;;
62951;SDS011;52163;52.212;-1.002;2022-11-20T13:16:00;7.70;;;2.70;;
62951;SDS011;52163;52.212;-1.002;2022-11-20T13:18:36;10.50;;;3.50;;
62951;SDS011;52163;52.212;-1.002;2022-11-20T13:21:20;12.90;;;3.00;;
62951;SDS011;52163;52.212;-1.002;2022-11-20T13:23:48;14.30;;;4.10;;
62951;SDS011;52163;52.212;-1.002;2022-11-20T13:26:15;9.60;;;1.80;;
62951;SDS011;52163;52.212;-1.002;2022-11-20T13:28:41;8.00;;;1.90;;
62951;SDS011;52163;52.212;-1.002;2022-11-20T13:31:22;7.80;;;2.10;;
62951;SDS011;52163;52.212;-1.002;2022-11-20T13:34:00;13.20;;;3.00;;
62951;SDS011;52163;52.212;-1.002;2022-11-20T13:36:29;9.40;;;1.90;;
62951;SDS011;52163;52.212;-1.002;2022-11-20T13:38:57;13.70;;;2.40;;
62951;SDS011;52163;52.212;-1.002;2022-11-20T13:41:34;10.10;;;1.90;;
62951;SDS011;52163;52.212;-1.002;2022-11-20T13:44:10;12.00;;;2.80;;
62951;SDS011;52163;52.212;-1.002;2022-11-20T13:46:49;12.30;;;2.30;;
62951;SDS011;52163;52.212;-1.002;2022-11-20T13:52:02;14.60;;;3.50;;
62951;SDS011;52163;52.212;-1.002;2022-11-20T14:02:40;12.80;;;2.90;;
62951;SDS011;52163;52.212;-1.002;2022-11-20T14:05:11;9.50;;;2.10;;
62951;SDS011;52163;52.212;-1.002;2022-11-20T14:07:49;6.60;;;1.50;;
62951;SDS011;52163;52.212;-1.002;2022-11-20T14:17:53;9.80;;;2.30;;
62951;SDS011;52163;52.212;-1.002;2022-11-20T14:20:18;10.50;;;3.20;;
62951;SDS011;52163;52.212;-1.002;2022-11-20T14:22:51;13.00;;;3.70;;
62951;SDS011;52163;52.212;-1.002;2022-11-20T14:27:53;13.40;;;3.30;;
62951;SDS011;52163;52.212;-1.002;2022-11-20T14:30:22;9.40;;;2.60;;
62951;SDS011;52163;52.212;-1.002;2022-11-20T14:32:49;13.60;;;2.90;;
62951;SDS011;52163;52.212;-1.002;2022-11-20T14:35:28;14.70;;;3.20;;
62951;SDS011;52163;52.212;-1.002;2022-11-20T14:37:55;14.80;;;3.90;;
62951;SDS011;52163;52.212;-1.002;2022-11-20T14:40:23;15.80;;;3.10;;
62951;SDS011;52163;52.212;-1.002;2022-11-20T14:43:19;8.90;;;2.40;;
62951;SDS011;52163;52.212;-1.002;2022-11-20T14:45:58;8.90;;;2.60;;
62951;SDS011;52163;52.212;-1.002;2022-11-20T14:48:28;10.80;;;2.60;;
62951;SDS011;52163;52.212;-1.002;2022-11-20T14:50:59;16.10;;;3.40;;
62951;SDS011;52163;52.212;-1.002;2022-11-20T14:53:25;13.10;;;2.60;;
62951;SDS011;52163;52.212;-1.002;2022-11-20T14:55:54;11.40;;;2.40;;
62951;SDS011;52163;52.212;-1.002;2022-11-20T14:58:22;12.50;;;2.20;;
62951;SDS011;52163;52.212;-1.002;2022-11-20T15:00:57;10.20;;;2.20;;
62951;SDS011;52163;52.212;-1.002;2022-11-20T15:03:31;12.60;;;3.10;;
62951;SDS011;52163;52.212;-1.002;2022-11-20T15:06:05;9.80;;;2.70;;
62951;SDS011;52163;52.212;-1.002;2022-11-20T15:08:32;15.70;;;2.50;;
62951;SDS011;52163;52.212;-1.002;2022-11-20T15:10:58;9.90;;;3.20;;
62951;SDS011;52163;52.212;-1.002;2022-11-20T15:13:31;11.80;;;3.30;;
62951;SDS011;52163;52.212;-1.002;2022-11-20T15:16:00;13.00;;;3.70;;
62951;SDS011;52163;52.212;-1.002;2022-11-20T15:18:30;15.10;;;3.90;;
62951;SDS011;52163;52.212;-1.002;2022-11-20T15:21:00;12.10;;;3.80;;
62951;SDS011;52163;52.212;-1.002;2022-11-20T15:23:28;14.00;;;3.00;;
62951;SDS011;52163;52.212;-1.002;2022-11-20T15:25:54;8.70;;;2.50;;
62951;SDS011;52163;52.212;-1.002;2022-11-20T15:28:30;5.60;;;2.10;;
62951;SDS011;52163;52.212;-1.002;2022-11-20T15:30:56;4.50;;;1.50;;
62951;SDS011;52163;52.212;-1.002;2022-11-20T15:33:22;4.80;;;1.10;;
62951;SDS011;52163;52.212;-1.002;2022-11-20T15:35:47;8.10;;;2.40;;
62951;SDS011;52163;52.212;-1.002;2022-11-20T15:38:13;6.70;;;2.10;;
62951;SDS011;52163;52.212;-1.002;2022-11-20T15:40:38;6.20;;;2.00;;
62951;SDS011;52163;52.212;-1.002;2022-11-20T15:43:04;4.80;;;1.70;;
62951;SDS011;52163;52.212;-1.002;2022-11-20T15:45:37;7.50;;;2.40;;
62951;SDS011;52163;52.212;-1.002;2022-11-20T15:48:20;6.70;;;1.50;;
62951;SDS011;52163;52.212;-1.002;2022-11-20T15:50:52;5.40;;;2.30;;
62951;SDS011;52163;52.212;-1.002;2022-11-20T15:53:28;5.40;;;2.20;;
62951;SDS011;52163;52.212;-1.002;2022-11-20T15:55:54;4.70;;;1.50;;
62951;SDS011;52163;52.212;-1.002;2022-11-20T15:58:19;5.10;;;1.40;;
62951;SDS011;52163;52.212;-1.002;2022-11-20T16:00:45;3.20;;;1.20;;
62951;SDS011;52163;52.212;-1.002;2022-11-20T16:03:11;2.90;;;1.20;;
62951;SDS011;52163;52.212;-1.002;2022-11-20T16:05:38;2.90;;;1.10;;
62951;SDS011;52163;52.212;-1.002;2022-11-20T16:08:04;3.30;;;1.00;;
62951;SDS011;52163;52.212;-1.002;2022-11-20T16:10:30;3.10;;;1.20;;
62951;SDS011;52163;52.212;-1.002;2022-11-20T16:12:56;3.30;;;1.10;;
62951;SDS011;52163;52.212;-1.002;2022-11-20T16:15:40;2.10;;;1.00;;
62951;SDS011;52163;52.212;-1.002;2022-11-20T16:18:12;2.70;;;1.10;;
62951;SDS011;52163;52.212;-1.002;2022-11-20T16:20:49;2.10;;;0.90;;